createdAt,value
2019-03-21T00:02:02.486Z,87.83
2019-03-21T00:05:09.511Z,83.47
2019-03-21T00:08:13.391Z,93.40
2019-03-21T00:11:55.120Z,94.83
2019-03-21T00:15:22.911Z,90.00
2019-03-21T00:18:26.765Z,84.80
2019-03-21T00:21:30.642Z,89.63
2019-03-21T00:24:34.495Z,91.20
2019-03-21T00:27:38.405Z,84.07
2019-03-21T00:30:42.247Z,85.30
2019-03-21T00:33:46.641Z,75.63
2019-03-21T00:36:50.465Z,81.27
2019-03-21T00:39:54.331Z,82.93
2019-03-21T00:43:00.185Z,79.50
2019-03-21T00:46:04.075Z,89.63
2019-03-21T00:49:07.910Z,86.00
2019-03-21T00:52:12.644Z,78.23
2019-03-21T00:55:16.501Z,81.20
2019-03-21T00:58:20.389Z,80.87
2019-03-21T01:01:24.821Z,78.97
2019-03-21T01:04:29.342Z,77.90
2019-03-21T01:07:33.188Z,83.93
2019-03-21T01:10:37.070Z,87.43
2019-03-21T01:13:41.516Z,82.07
2019-03-21T01:16:45.486Z,80.17
2019-03-21T01:19:49.316Z,85.90
2019-03-21T01:22:53.215Z,84.97
2019-03-21T01:26:00.350Z,91.53
2019-03-21T01:29:04.241Z,83.70
2019-03-21T01:32:08.156Z,87.87
2019-03-21T01:35:12.127Z,75.43
2019-03-21T01:38:15.966Z,84.80
2019-03-21T01:41:20.546Z,82.73
2019-03-21T01:44:24.475Z,85.23
2019-03-21T01:47:28.366Z,78.63
2019-03-21T01:50:39.721Z,79.33
2019-03-21T01:53:43.604Z,79.00
2019-03-21T01:56:47.451Z,73.33
2019-03-21T01:59:51.346Z,82.43
2019-03-21T02:02:57.091Z,72.73
2019-03-21T02:06:00.950Z,74.37
2019-03-21T02:09:08.663Z,80.00
2019-03-21T02:12:12.514Z,71.10
2019-03-21T02:15:17.761Z,72.80
2019-03-21T02:18:21.622Z,62.20
2019-03-21T02:21:25.471Z,65.57
2019-03-21T02:24:29.374Z,66.97
2019-03-21T02:27:33.231Z,72.97
2019-03-21T02:30:41.804Z,72.77
2019-03-21T02:33:46.028Z,67.37
2019-03-21T02:36:49.921Z,69.10
2019-03-21T02:39:59.832Z,68.33
2019-03-21T02:42:59.283Z,66.30
2019-03-21T02:46:03.120Z,64.60
2019-03-21T02:49:07.010Z,69.60
2019-03-21T02:52:10.838Z,65.87
2019-03-21T02:55:14.784Z,62.03
2019-03-21T02:58:18.612Z,72.73
2019-03-21T03:01:22.497Z,70.63
2019-03-21T03:04:26.331Z,66.23
2019-03-21T03:07:30.231Z,67.53
2019-03-21T03:10:51.666Z,64.70
2019-03-21T03:13:55.761Z,61.00
2019-03-21T03:16:59.573Z,63.63
2019-03-21T03:20:05.050Z,65.03
2019-03-21T03:23:08.887Z,61.87
2019-03-21T03:26:12.866Z,68.53
2019-03-21T03:29:16.720Z,63.67
2019-03-21T03:32:21.229Z,62.37
2019-03-21T03:35:25.066Z,65.50
2019-03-21T03:38:28.961Z,67.73
2019-03-21T03:41:32.806Z,61.90
2019-03-21T03:44:36.708Z,61.07
2019-03-21T03:47:40.542Z,67.50
2019-03-21T03:50:44.441Z,71.13
2019-03-21T03:53:48.286Z,59.87
2019-03-21T03:56:52.155Z,62.23
2019-03-21T03:59:56.001Z,60.20
2019-03-21T04:02:59.903Z,57.57
2019-03-21T04:06:03.761Z,55.33
2019-03-21T04:09:08.772Z,61.50
2019-03-21T04:12:12.710Z,49.33
2019-03-21T04:15:16.781Z,60.83
2019-03-21T04:18:22.784Z,58.40
2019-03-21T04:21:26.704Z,52.90
2019-03-21T04:24:30.985Z,53.07
2019-03-21T04:27:34.938Z,60.87
2019-03-21T04:30:38.827Z,58.33
2019-03-21T04:33:44.533Z,62.57
2019-03-21T04:36:48.381Z,79.30
2019-03-21T04:39:52.295Z,78.83
2019-03-21T04:42:56.151Z,76.40
2019-03-21T04:46:03.629Z,73.53
2019-03-21T04:49:05.502Z,67.50
2019-03-21T04:52:09.447Z,82.00
2019-03-21T04:55:15.697Z,94.23
2019-03-21T04:58:19.571Z,79.77
2019-03-21T05:01:23.435Z,89.77
2019-03-21T05:04:27.331Z,89.80
2019-03-21T05:07:31.193Z,88.97
2019-03-21T05:10:35.094Z,88.20
2019-03-21T05:13:38.975Z,87.07
2019-03-21T05:16:42.873Z,90.50
2019-03-21T05:19:46.701Z,90.47
2019-03-21T05:22:50.600Z,94.83
2019-03-21T05:25:54.447Z,98.80
2019-03-21T05:28:58.347Z,104.50
2019-03-21T05:32:03.772Z,109.43
2019-03-21T05:35:09.782Z,100.83
2019-03-21T05:38:14.590Z,96.83
2019-03-21T05:41:18.487Z,102.27
2019-03-21T05:44:25.251Z,102.13
2019-03-21T05:47:29.151Z,82.83
2019-03-21T05:50:32.966Z,86.63
2019-03-21T05:53:36.846Z,85.73
2019-03-21T05:56:40.679Z,72.77
2019-03-21T05:59:44.605Z,73.63
2019-03-21T06:02:48.443Z,66.83
2019-03-21T06:05:55.264Z,76.23
2019-03-21T06:08:59.102Z,74.10
2019-03-21T06:12:05.005Z,66.50
2019-03-21T06:15:11.837Z,66.73
2019-03-21T06:18:24.538Z,66.73
2019-03-21T06:21:51.120Z,59.27
2019-03-21T06:25:00.942Z,58.30
2019-03-21T06:28:04.776Z,73.57
2019-03-21T06:31:08.720Z,68.37
2019-03-21T06:34:13.127Z,62.07
2019-03-21T06:37:17.018Z,65.57
2019-03-21T06:40:20.850Z,70.27
2019-03-21T06:43:24.766Z,68.17
2019-03-21T06:46:28.629Z,67.77
2019-03-21T06:49:32.527Z,73.67
2019-03-21T06:52:36.364Z,71.03
2019-03-21T06:55:40.250Z,67.07
2019-03-21T06:58:44.101Z,71.50
2019-03-21T07:01:47.942Z,74.23
2019-03-21T07:04:52.001Z,78.07
2019-03-21T07:07:55.873Z,71.47
2019-03-21T07:10:59.806Z,74.13
2019-03-21T07:14:03.710Z,60.67
2019-03-21T07:17:07.585Z,68.43
2019-03-21T07:20:13.646Z,62.27
2019-03-21T07:23:18.082Z,72.37
2019-03-21T07:26:21.966Z,68.70
2019-03-21T07:29:26.167Z,76.00
2019-03-21T07:32:33.608Z,77.20
2019-03-21T07:35:35.509Z,77.87
2019-03-21T07:38:39.445Z,78.47
2019-03-21T07:41:43.282Z,84.60
2019-03-21T07:44:47.247Z,93.13
2019-03-21T07:47:51.388Z,95.30
2019-03-21T07:50:55.281Z,92.57
2019-03-21T07:53:59.147Z,96.27
2019-03-21T07:57:03.042Z,99.80
2019-03-21T08:00:13.073Z,88.93
2019-03-21T08:03:16.969Z,76.50
2019-03-21T08:06:20.782Z,64.83
2019-03-21T08:09:24.692Z,61.40
2019-03-21T08:12:28.517Z,67.40
2019-03-21T08:15:32.395Z,86.77
2019-03-21T08:18:36.246Z,100.93
2019-03-21T08:21:40.295Z,114.87
2019-03-21T08:24:44.104Z,129.70
2019-03-21T08:27:48.251Z,121.73
2019-03-21T08:31:07.881Z,108.30
2019-03-21T08:34:14.304Z,101.47
2019-03-21T08:37:18.651Z,89.33
2019-03-21T08:40:22.709Z,96.20
2019-03-21T08:43:26.682Z,105.10
2019-03-21T08:46:30.771Z,115.13
2019-03-21T08:49:34.753Z,121.57
2019-03-21T08:52:38.713Z,109.73
2019-03-21T08:55:42.892Z,94.67
2019-03-21T08:58:46.759Z,93.60
2019-03-21T09:01:50.791Z,83.57
2019-03-21T09:04:54.742Z,76.87
2019-03-21T09:07:58.825Z,91.13
2019-03-21T09:11:03.021Z,112.90
2019-03-21T09:14:07.248Z,121.87
2019-03-21T09:17:11.551Z,130.23
2019-03-21T09:20:15.529Z,120.73
2019-03-21T09:23:19.588Z,122.07
2019-03-21T09:26:24.828Z,132.57
2019-03-21T09:29:29.028Z,130.90
2019-03-21T09:32:33.130Z,130.97
2019-03-21T09:35:37.296Z,122.30
2019-03-21T09:38:42.917Z,124.10
2019-03-21T09:41:46.783Z,119.50
2019-03-21T09:44:50.628Z,126.50
2019-03-21T09:47:54.541Z,118.03
2019-03-21T09:50:58.351Z,130.83
2019-03-21T09:54:09.597Z,126.93
2019-03-21T09:57:07.732Z,132.87
2019-03-21T10:00:12.010Z,131.27
2019-03-21T10:03:15.864Z,120.63
2019-03-21T10:06:19.767Z,124.73
2019-03-21T10:09:23.603Z,112.57
2019-03-21T10:12:27.492Z,112.57
2019-03-21T10:15:31.365Z,105.67
2019-03-21T10:18:35.240Z,110.07
2019-03-21T10:21:43.567Z,109.07
2019-03-21T10:24:44.624Z,114.57
2019-03-21T10:27:48.562Z,107.07
2019-03-21T10:30:52.387Z,110.03
2019-03-21T10:33:56.272Z,104.13
2019-03-21T10:37:00.386Z,118.97
2019-03-21T10:40:05.392Z,120.53
2019-03-21T10:43:10.495Z,118.57
2019-03-21T10:46:14.690Z,110.07
2019-03-21T10:49:18.531Z,105.13
2019-03-21T10:52:22.430Z,91.73
2019-03-21T10:55:26.366Z,97.20
2019-03-21T10:58:30.220Z,94.00
2019-03-21T11:01:34.145Z,97.30
2019-03-21T11:04:37.985Z,93.13
2019-03-21T11:07:41.866Z,90.60
2019-03-21T11:10:47.184Z,78.63
2019-03-21T11:13:51.376Z,85.13
2019-03-21T11:16:55.364Z,86.83
2019-03-21T11:19:59.218Z,90.33
2019-03-21T11:23:03.223Z,99.03
2019-03-21T11:26:07.281Z,98.87
2019-03-21T11:29:11.113Z,110.53
2019-03-21T11:32:15.041Z,115.30
2019-03-21T11:35:18.886Z,117.87
2019-03-21T11:38:22.789Z,122.03
2019-03-21T11:41:26.645Z,123.77
2019-03-21T11:44:30.555Z,120.70
2019-03-21T11:47:41.757Z,114.30
2019-03-21T11:50:40.008Z,129.40
2019-03-21T11:53:43.911Z,110.67
2019-03-21T11:56:47.732Z,115.10
2019-03-21T11:59:52.476Z,114.63
2019-03-21T12:02:56.508Z,106.80
2019-03-21T12:06:00.420Z,107.00
2019-03-21T12:09:06.765Z,118.70
2019-03-21T12:12:10.692Z,111.17
2019-03-21T12:15:14.727Z,107.93
2019-03-21T12:18:18.657Z,105.83
2019-03-21T12:21:22.529Z,111.63
2019-03-21T12:24:26.382Z,109.87
2019-03-21T12:27:30.289Z,93.20
2019-03-21T12:30:38.893Z,99.70
2019-03-21T12:33:42.781Z,92.97
2019-03-21T12:36:46.621Z,94.73
2019-03-21T12:39:50.528Z,79.47
2019-03-21T12:42:54.355Z,85.63
2019-03-21T12:45:58.362Z,89.73
2019-03-21T12:49:02.264Z,79.23
2019-03-21T12:52:06.110Z,79.50
2019-03-21T12:55:10.086Z,77.83
2019-03-21T12:58:13.881Z,63.37
2019-03-21T13:01:17.766Z,53.53
2019-03-21T13:04:21.588Z,50.47
2019-03-21T13:07:28.555Z,42.50
2019-03-21T13:10:32.391Z,45.63
2019-03-21T13:13:36.312Z,40.17
2019-03-21T13:16:40.224Z,46.40
2019-03-21T13:19:44.083Z,48.97
2019-03-21T13:22:52.772Z,45.13
2019-03-21T13:25:53.520Z,43.43
2019-03-21T13:28:57.443Z,48.43
2019-03-21T13:32:01.307Z,43.07
2019-03-21T13:35:07.143Z,39.77
2019-03-21T13:38:11.047Z,48.97
2019-03-21T13:41:14.966Z,50.47
2019-03-21T13:44:18.834Z,48.30
2019-03-21T13:47:23.947Z,47.73
2019-03-21T13:50:27.806Z,56.63
2019-03-21T13:53:31.723Z,44.57
2019-03-21T13:56:38.347Z,44.30
2019-03-21T13:59:41.161Z,42.53
2019-03-21T14:02:45.019Z,49.97
2019-03-21T14:05:48.867Z,49.33
2019-03-21T14:08:52.795Z,49.10
2019-03-21T14:11:56.627Z,44.67
2019-03-21T14:15:00.527Z,42.80
2019-03-21T14:18:04.465Z,43.43
2019-03-21T14:21:08.361Z,43.30
2019-03-21T14:24:12.264Z,46.77
2019-03-21T14:27:16.126Z,50.50
2019-03-21T14:30:21.093Z,52.93
2019-03-21T14:33:24.973Z,48.60
2019-03-21T14:36:28.841Z,43.10
2019-03-21T14:39:32.876Z,57.00
2019-03-21T14:42:36.744Z,45.20
2019-03-21T14:45:40.611Z,47.47
2019-03-21T14:48:44.599Z,43.93
2019-03-21T14:51:48.508Z,46.80
2019-03-21T14:54:52.326Z,46.87
2019-03-21T14:57:56.232Z,51.73
2019-03-21T15:01:00.063Z,47.40
2019-03-21T15:04:04.044Z,44.93
2019-03-21T15:07:07.847Z,44.17
2019-03-21T15:10:14.641Z,50.17
2019-03-21T15:13:18.492Z,44.00
2019-03-21T15:16:22.347Z,47.63
2019-03-21T15:19:26.192Z,50.30
2019-03-21T15:22:30.069Z,44.77
2019-03-21T15:25:33.965Z,44.23
2019-03-21T15:28:37.956Z,41.07
2019-03-21T15:31:41.828Z,37.80
2019-03-21T15:34:45.682Z,41.60
2019-03-21T15:37:49.600Z,44.47
2019-03-21T15:40:53.487Z,44.07
2019-03-21T15:43:57.312Z,43.60
2019-03-21T15:47:01.207Z,42.70
2019-03-21T15:50:08.290Z,48.13
2019-03-21T15:53:12.547Z,43.33
2019-03-21T15:56:16.425Z,41.03
2019-03-21T15:59:20.283Z,50.77
2019-03-21T16:02:24.793Z,42.63
2019-03-21T16:05:28.740Z,42.17
2019-03-21T16:08:32.633Z,44.30
2019-03-21T16:11:36.538Z,46.43
2019-03-21T16:14:40.421Z,40.67
2019-03-21T16:17:44.301Z,37.37
2019-03-21T16:20:48.188Z,36.60
2019-03-21T16:24:04.227Z,38.00
2019-03-21T16:26:57.809Z,40.77
2019-03-21T16:30:01.655Z,39.10
2019-03-21T16:33:05.543Z,38.67
2019-03-21T16:36:09.440Z,54.47
2019-03-21T16:39:13.264Z,45.23
2019-03-21T16:42:17.178Z,42.60
2019-03-21T16:45:21.481Z,49.67
2019-03-21T16:48:25.551Z,45.43
2019-03-21T16:51:29.421Z,42.53
2019-03-21T16:54:33.255Z,40.87
2019-03-21T16:57:38.311Z,40.13
2019-03-21T17:00:43.867Z,44.77
2019-03-21T17:03:47.780Z,45.17
2019-03-21T17:06:51.662Z,51.03
2019-03-21T17:09:57.922Z,53.87
2019-03-21T17:13:04.440Z,52.33
2019-03-21T17:16:06.562Z,60.77
2019-03-21T17:19:10.467Z,60.60
2019-03-21T17:22:14.763Z,52.40
2019-03-21T17:25:18.636Z,59.73
2019-03-21T17:28:22.533Z,54.23
2019-03-21T17:31:26.364Z,59.97
2019-03-21T17:34:30.803Z,56.43
2019-03-21T17:37:34.663Z,52.90
2019-03-21T17:40:38.571Z,58.30
2019-03-21T17:43:42.506Z,59.97
2019-03-21T17:46:46.430Z,61.80
2019-03-21T17:49:50.228Z,60.37
2019-03-21T17:52:54.124Z,65.00
2019-03-21T17:55:58.013Z,65.97
2019-03-21T17:59:01.881Z,70.17
2019-03-21T18:02:05.748Z,72.67
2019-03-21T18:05:09.832Z,73.00
2019-03-21T18:08:13.958Z,77.47
2019-03-21T18:11:17.871Z,75.97
2019-03-21T18:14:21.723Z,79.43
2019-03-21T18:17:26.309Z,77.53
2019-03-21T18:20:30.161Z,86.73
2019-03-21T18:23:34.071Z,104.80
2019-03-21T18:26:37.926Z,134.70
2019-03-21T18:29:41.837Z,112.43
2019-03-21T18:32:45.743Z,116.23
2019-03-21T18:35:49.580Z,113.73
2019-03-21T18:38:59.355Z,109.33
2019-03-21T18:41:59.082Z,95.50
2019-03-21T18:45:03.939Z,96.10
2019-03-21T18:48:07.905Z,99.73
2019-03-21T18:51:11.881Z,98.57
2019-03-21T18:54:15.843Z,91.87
2019-03-21T18:57:19.956Z,104.27
2019-03-21T19:00:24.153Z,96.40
2019-03-21T19:03:28.166Z,102.50
2019-03-21T19:06:32.208Z,111.80
2019-03-21T19:09:36.107Z,109.67
2019-03-21T19:12:40.191Z,121.80
2019-03-21T19:15:44.250Z,114.50
2019-03-21T19:18:48.137Z,120.10
2019-03-21T19:21:52.236Z,134.87
2019-03-21T19:24:56.253Z,119.27
2019-03-21T19:28:00.181Z,112.20
2019-03-21T19:31:05.561Z,117.73
2019-03-21T19:34:09.531Z,113.47
2019-03-21T19:37:13.469Z,109.83
2019-03-21T19:40:20.243Z,112.43
2019-03-21T19:43:24.491Z,96.73
2019-03-21T19:46:28.551Z,100.93
2019-03-21T19:49:32.579Z,96.60
2019-03-21T19:52:38.211Z,96.83
2019-03-21T19:55:42.086Z,205.43
2019-03-21T19:58:45.979Z,99.20
2019-03-21T20:01:49.936Z,86.37
2019-03-21T20:04:53.930Z,80.73
2019-03-21T20:07:57.819Z,79.83
2019-03-21T20:11:01.738Z,74.93
2019-03-21T20:14:05.679Z,77.57
2019-03-21T20:17:09.563Z,82.20
2019-03-21T20:20:15.490Z,74.43
2019-03-21T20:23:19.300Z,78.33
2019-03-21T20:26:23.205Z,72.80
2019-03-21T20:29:27.135Z,74.73
2019-03-21T20:32:30.993Z,66.67
2019-03-21T20:35:35.008Z,63.40
2019-03-21T20:38:38.880Z,65.37
2019-03-21T20:41:42.788Z,69.90
2019-03-21T20:44:46.711Z,72.10
2019-03-21T20:47:50.600Z,70.67
2019-03-21T20:50:54.460Z,72.03
2019-03-21T20:53:58.437Z,71.53
2019-03-21T20:57:02.443Z,67.43
2019-03-21T21:00:12.222Z,73.13
2019-03-21T21:03:16.128Z,66.73
2019-03-21T21:06:20.106Z,66.27
2019-03-21T21:09:23.997Z,69.57
2019-03-21T21:12:27.858Z,79.23
2019-03-21T21:15:31.804Z,70.97
2019-03-21T21:18:36.630Z,76.27
2019-03-21T21:21:40.521Z,83.43
2019-03-21T21:24:45.174Z,83.33
2019-03-21T21:27:50.242Z,82.30
2019-03-21T21:30:54.373Z,76.03
2019-03-21T21:33:58.261Z,81.50
2019-03-21T21:37:02.161Z,82.50
2019-03-21T21:40:10.409Z,83.63
2019-03-21T21:43:14.288Z,82.50
2019-03-21T21:46:18.156Z,189.73
2019-03-21T21:49:22.041Z,245.87
2019-03-21T21:52:26.611Z,206.73
2019-03-21T21:55:30.475Z,207.27
2019-03-21T21:58:34.393Z,204.20
2019-03-21T22:01:38.252Z,168.63
2019-03-21T22:04:42.180Z,169.97
2019-03-21T22:07:46.027Z,170.20
2019-03-21T22:10:49.968Z,174.73
2019-03-21T22:13:53.811Z,142.10
2019-03-21T22:16:57.700Z,139.27
2019-03-21T22:20:01.567Z,117.60
2019-03-21T22:23:05.486Z,120.80
2019-03-21T22:26:09.433Z,123.83
2019-03-21T22:29:13.361Z,132.47
2019-03-21T22:32:17.223Z,117.87
2019-03-21T22:35:21.246Z,107.30
2019-03-21T22:38:25.281Z,109.97
2019-03-21T22:41:29.140Z,110.80
2019-03-21T22:44:32.992Z,104.73
2019-03-21T22:47:36.861Z,119.10
2019-03-21T22:50:41.140Z,115.70
2019-03-21T22:53:45.042Z,115.07
2019-03-21T22:56:48.883Z,111.63
2019-03-21T22:59:52.826Z,113.07
2019-03-21T23:02:57.176Z,112.87
2019-03-21T23:06:01.102Z,130.30
2019-03-21T23:09:07.501Z,147.87
2019-03-21T23:12:11.406Z,136.27
2019-03-21T23:15:15.407Z,133.43
2019-03-21T23:18:19.241Z,137.20
2019-03-21T23:21:23.111Z,149.90
2019-03-21T23:24:26.949Z,149.80
2019-03-21T23:27:30.970Z,135.33
2019-03-21T23:30:34.828Z,139.50
2019-03-21T23:33:38.804Z,147.17
2019-03-21T23:36:44.762Z,148.43
2019-03-21T23:39:48.268Z,126.90
2019-03-21T23:42:52.161Z,136.60
2019-03-21T23:45:56.041Z,121.40
2019-03-21T23:48:59.942Z,134.20
2019-03-21T23:52:03.782Z,143.67
2019-03-21T23:55:09.004Z,125.60
2019-03-21T23:58:12.868Z,120.03
